createdAt,value
2023-05-15T00:02:24.411Z,4.45
2023-05-15T00:07:45.307Z,4.30
2023-05-15T00:13:06.127Z,3.92
2023-05-15T00:18:27.385Z,4.85
2023-05-15T00:23:49.099Z,5.15
2023-05-15T00:29:10.279Z,4.80
2023-05-15T00:34:33.250Z,4.88
2023-05-15T00:39:54.187Z,4.60
2023-05-15T00:45:15.905Z,4.32
2023-05-15T00:50:37.200Z,3.72
2023-05-15T00:55:59.550Z,4.35
2023-05-15T01:01:20.453Z,3.63
2023-05-15T01:06:41.607Z,5.80
2023-05-15T01:12:04.968Z,5.32
2023-05-15T01:17:26.085Z,5.38
2023-05-15T01:23:00.598Z,5.28
2023-05-15T01:28:45.719Z,5.60
2023-05-15T01:34:09.737Z,5.38
2023-05-15T01:39:33.943Z,5.10
2023-05-15T01:44:57.044Z,4.45
2023-05-15T01:50:20.782Z,4.88
2023-05-15T01:55:42.644Z,4.63
2023-05-15T02:01:04.909Z,4.60
2023-05-15T02:06:26.163Z,4.30
2023-05-15T02:11:48.100Z,3.63
2023-05-15T02:17:09.125Z,4.05
2023-05-15T02:22:29.889Z,3.72
2023-05-15T02:28:00.762Z,3.75
2023-05-15T02:33:21.898Z,3.70
2023-05-15T02:38:49.305Z,2.80
2023-05-15T02:44:12.150Z,3.22
2023-05-15T02:49:33.424Z,2.95
2023-05-15T02:54:54.645Z,3.42
2023-05-15T03:00:16.344Z,2.85
2023-05-15T03:05:37.298Z,3.72
2023-05-15T03:10:58.373Z,2.90
2023-05-15T03:16:19.487Z,2.63
2023-05-15T03:21:40.588Z,2.97
2023-05-15T03:27:01.393Z,3.45
2023-05-15T03:32:23.237Z,3.85
2023-05-15T03:37:44.222Z,2.92
2023-05-15T03:43:06.397Z,2.70
2023-05-15T03:48:27.149Z,3.15
2023-05-15T03:53:47.915Z,3.13
2023-05-15T03:59:08.842Z,4.38
2023-05-15T04:04:29.753Z,3.53
2023-05-15T04:09:53.374Z,2.25
2023-05-15T04:15:22.989Z,2.60
2023-05-15T04:20:43.969Z,2.92
2023-05-15T04:26:04.872Z,3.17
2023-05-15T04:31:27.351Z,3.08
2023-05-15T04:36:51.465Z,2.58
2023-05-15T04:42:12.513Z,3.10
2023-05-15T04:47:33.369Z,3.13
2023-05-15T04:52:54.424Z,2.40
2023-05-15T04:58:15.070Z,2.00
2023-05-15T05:03:35.915Z,3.55
2023-05-15T05:08:58.469Z,3.20
2023-05-15T05:14:19.820Z,3.45
2023-05-15T05:19:42.216Z,2.50
2023-05-15T05:25:03.603Z,3.40
2023-05-15T05:30:24.700Z,3.65
2023-05-15T05:35:45.282Z,3.28
2023-05-15T05:41:06.241Z,3.35
2023-05-15T05:46:27.435Z,4.03
2023-05-15T05:51:48.673Z,3.97
2023-05-15T05:57:09.840Z,2.38
2023-05-15T06:02:31.300Z,3.60
2023-05-15T06:07:53.792Z,3.45
2023-05-15T06:13:15.283Z,3.20
2023-05-15T06:18:36.131Z,1.80
2023-05-15T06:23:56.873Z,2.83
2023-05-15T06:29:17.651Z,2.85
2023-05-15T06:34:38.462Z,3.10
2023-05-15T06:39:59.353Z,3.20
2023-05-15T06:45:20.003Z,3.38
2023-05-15T06:50:40.810Z,2.38
2023-05-15T06:56:01.760Z,2.90
2023-05-15T07:01:22.707Z,3.03
2023-05-15T07:06:43.602Z,3.05
2023-05-15T07:12:04.801Z,2.90
2023-05-15T07:17:25.721Z,3.22
2023-05-15T07:22:55.822Z,3.20
2023-05-15T07:28:19.147Z,2.72
2023-05-15T07:33:41.200Z,3.20
2023-05-15T07:39:02.105Z,2.75
2023-05-15T07:44:23.151Z,2.80
2023-05-15T07:49:47.382Z,2.35
2023-05-15T07:55:10.612Z,3.15
2023-05-15T08:00:31.788Z,3.40
2023-05-15T08:05:52.956Z,3.42
2023-05-15T08:11:13.963Z,3.40
2023-05-15T08:16:35.185Z,3.65
2023-05-15T08:21:55.847Z,3.40
2023-05-15T08:27:16.773Z,3.33
2023-05-15T08:32:37.742Z,3.85
2023-05-15T08:37:59.330Z,3.17
2023-05-15T08:43:22.758Z,3.50
2023-05-15T08:48:44.233Z,2.88
2023-05-15T08:54:07.427Z,3.20
2023-05-15T08:59:29.188Z,3.13
2023-05-15T09:04:51.757Z,2.92
2023-05-15T09:10:14.355Z,3.20
2023-05-15T09:15:35.407Z,2.85
2023-05-15T09:20:56.664Z,2.65
2023-05-15T09:26:17.414Z,2.10
2023-05-15T09:31:38.307Z,2.33
2023-05-15T09:37:00.948Z,2.50
2023-05-15T09:42:24.750Z,2.08
2023-05-15T09:47:47.351Z,2.00
2023-05-15T09:53:12.868Z,2.38
2023-05-15T09:58:35.348Z,2.33
2023-05-15T10:04:00.827Z,2.00
2023-05-15T10:09:33.774Z,1.90
2023-05-15T10:14:57.441Z,1.85
2023-05-15T10:20:26.221Z,1.73
2023-05-15T10:26:02.118Z,2.47
2023-05-15T10:31:25.393Z,2.58
2023-05-15T10:36:49.526Z,2.33
2023-05-15T10:42:13.546Z,2.22
2023-05-15T10:47:35.487Z,2.70
2023-05-15T10:52:56.693Z,1.67
2023-05-15T10:58:18.050Z,1.80
2023-05-15T11:03:48.583Z,1.33
2023-05-15T11:09:22.572Z,1.33
2023-05-15T11:15:04.568Z,1.10
2023-05-15T11:20:43.007Z,1.52
2023-05-15T11:26:05.785Z,1.55
2023-05-15T11:31:32.707Z,1.40
2023-05-15T11:36:53.580Z,2.08
2023-05-15T11:42:17.481Z,1.70
2023-05-15T11:47:38.525Z,1.67
2023-05-15T11:53:10.691Z,2.22
2023-05-15T11:58:32.002Z,1.40
2023-05-15T12:03:54.403Z,2.50
2023-05-15T12:09:17.568Z,1.65
2023-05-15T12:14:40.117Z,1.73
2023-05-15T12:20:01.445Z,2.17
2023-05-15T12:25:22.703Z,1.70
2023-05-15T12:30:43.930Z,2.50
2023-05-15T12:36:05.164Z,1.88
2023-05-15T12:41:29.563Z,2.30
2023-05-15T12:46:54.976Z,2.60
2023-05-15T12:52:16.717Z,2.13
2023-05-15T12:57:37.778Z,2.78
2023-05-15T13:02:59.603Z,2.25
2023-05-15T13:08:20.693Z,2.78
2023-05-15T13:13:43.595Z,2.40
2023-05-15T13:19:05.711Z,3.15
2023-05-15T13:24:27.111Z,2.35
2023-05-15T13:29:48.598Z,2.70
2023-05-15T13:35:10.453Z,2.40
2023-05-15T13:40:37.293Z,2.97
2023-05-15T13:45:58.331Z,2.53
2023-05-15T13:51:19.103Z,2.58
2023-05-15T13:56:39.940Z,2.38
2023-05-15T14:02:00.589Z,2.88
2023-05-15T14:07:24.678Z,2.85
2023-05-15T14:12:47.064Z,2.55
2023-05-15T14:18:08.177Z,2.47
2023-05-15T14:23:29.360Z,2.42
2023-05-15T14:28:50.850Z,3.00
2023-05-15T14:34:11.587Z,2.33
2023-05-15T14:39:32.863Z,2.30
2023-05-15T14:44:53.561Z,2.40
2023-05-15T14:50:14.305Z,2.75
2023-05-15T14:55:35.190Z,2.20
2023-05-15T15:00:56.486Z,3.03
2023-05-15T15:06:17.463Z,2.80
2023-05-15T15:11:38.399Z,2.97
2023-05-15T15:16:59.100Z,2.63
2023-05-15T15:22:19.878Z,3.10
2023-05-15T15:27:41.012Z,2.70
2023-05-15T15:33:02.003Z,2.58
2023-05-15T15:38:22.995Z,2.95
2023-05-15T15:43:44.032Z,2.78
2023-05-15T15:49:06.777Z,3.47
2023-05-15T15:54:29.016Z,2.90
2023-05-15T15:59:50.218Z,2.85
2023-05-15T16:05:11.079Z,2.63
2023-05-15T16:10:32.064Z,2.80
2023-05-15T16:15:53.149Z,2.95
2023-05-15T16:21:14.521Z,2.72
2023-05-15T16:26:38.028Z,2.53
2023-05-15T16:31:59.549Z,2.78
2023-05-15T16:37:23.629Z,2.80
2023-05-15T16:42:44.894Z,2.78
2023-05-15T16:48:06.310Z,2.97
2023-05-15T16:53:27.483Z,2.78
2023-05-15T16:58:48.439Z,3.47
2023-05-15T17:04:10.453Z,3.08
2023-05-15T17:09:31.226Z,2.78
2023-05-15T17:14:52.437Z,3.30
2023-05-15T17:20:13.824Z,2.90
2023-05-15T17:25:36.486Z,3.40
2023-05-15T17:30:57.259Z,3.10
2023-05-15T17:36:18.063Z,2.63
2023-05-15T17:41:39.229Z,2.47
2023-05-15T17:47:02.361Z,3.33
2023-05-15T17:52:23.266Z,2.67
2023-05-15T17:57:49.848Z,3.08
2023-05-15T18:03:11.361Z,3.42
2023-05-15T18:08:32.524Z,3.22
2023-05-15T18:13:53.421Z,3.13
2023-05-15T18:19:14.738Z,3.33
2023-05-15T18:24:35.784Z,3.47
2023-05-15T18:29:56.916Z,3.88
2023-05-15T18:35:18.345Z,3.50
2023-05-15T18:40:39.505Z,3.20
2023-05-15T18:46:00.595Z,3.33
2023-05-15T18:51:21.565Z,3.30
2023-05-15T18:56:43.273Z,3.65
2023-05-15T19:02:04.543Z,3.15
2023-05-15T19:07:28.826Z,3.60
2023-05-15T19:12:49.739Z,3.08
2023-05-15T19:18:11.051Z,3.63
2023-05-15T19:23:32.425Z,3.35
2023-05-15T19:28:53.448Z,3.28
2023-05-15T19:34:14.620Z,3.58
2023-05-15T19:39:36.045Z,3.45
2023-05-15T19:44:57.200Z,3.40
2023-05-15T19:50:18.776Z,3.10
2023-05-15T19:55:40.402Z,3.35
2023-05-15T20:01:01.647Z,3.15
2023-05-15T20:06:22.676Z,3.67
2023-05-15T20:11:43.705Z,3.05
2023-05-15T20:17:05.243Z,3.78
2023-05-15T20:22:26.572Z,3.47
2023-05-15T20:27:48.458Z,2.75
2023-05-15T20:33:10.023Z,3.80
2023-05-15T20:38:31.281Z,3.78
2023-05-15T20:43:52.224Z,3.45
2023-05-15T20:49:13.797Z,2.83
2023-05-15T20:54:35.706Z,3.38
2023-05-15T20:59:56.632Z,3.50
2023-05-15T21:05:19.743Z,3.45
2023-05-15T21:10:41.253Z,3.00
2023-05-15T21:16:02.301Z,2.70
2023-05-15T21:21:23.474Z,2.63
2023-05-15T21:26:44.436Z,3.10
2023-05-15T21:32:06.681Z,3.40
2023-05-15T21:37:32.563Z,2.97
2023-05-15T21:42:53.775Z,3.10
2023-05-15T21:48:15.081Z,3.05
2023-05-15T21:53:36.072Z,2.78
2023-05-15T21:58:57.323Z,2.88
2023-05-15T22:04:18.106Z,3.10
2023-05-15T22:09:38.967Z,3.58
2023-05-15T22:15:00.571Z,3.05
2023-05-15T22:20:21.509Z,2.90
2023-05-15T22:25:42.970Z,3.35
2023-05-15T22:31:04.356Z,3.38
2023-05-15T22:36:25.403Z,3.60
2023-05-15T22:41:47.637Z,3.58
2023-05-15T22:47:08.703Z,3.67
2023-05-15T22:52:29.446Z,4.10
2023-05-15T22:57:50.160Z,3.70
2023-05-15T23:03:12.576Z,3.75
2023-05-15T23:08:33.320Z,3.55
2023-05-15T23:13:54.803Z,3.35
2023-05-15T23:19:18.799Z,3.50
2023-05-15T23:24:39.840Z,3.67
2023-05-15T23:30:00.777Z,3.53
2023-05-15T23:35:21.896Z,3.60
2023-05-15T23:40:42.569Z,3.45
2023-05-15T23:46:03.476Z,3.70
2023-05-15T23:51:24.471Z,3.20
2023-05-15T23:56:45.876Z,3.38
